Time;durP1;ratioP1;P1;durP2;ratioP2;P2;SDS_P1;SDS_P2;PMS_P1;PMS_P2;Temp;Humidity;BMP_temperature;BMP_pressure;BME280_temperature;BME280_humidity;BME280_pressure;Samples;Min_cycle;Max_cycle;Signal;HPM_P1;HPM_P2
2021/08/13 00:00:10;;;;;;;8.65;6.35;;;;;;;22.92;57.77;100486.53;5109708;28;20062;-22
2021/08/13 00:02:35;;;;;;;10.40;7.28;;;;;;;23.18;57.60;100497.94;5109742;28;20028;-23
2021/08/13 00:05:01;;;;;;;8.95;6.97;;;;;;;22.93;58.30;100500.97;5109888;28;20399;-22
2021/08/13 00:07:26;;;;;;;9.15;6.47;;;;;;;23.00;58.06;100495.97;5109932;28;20080;-22
2021/08/13 00:09:51;;;;;;;11.10;7.03;;;;;;;22.91;58.44;100493.09;5109664;28;20035;-23
2021/08/13 00:12:17;;;;;;;9.73;7.00;;;;;;;22.99;58.31;100495.16;5109868;28;20396;-23
2021/08/13 00:14:42;;;;;;;10.05;6.63;;;;;;;22.82;58.11;100473.91;5109645;28;20036;-22
2021/08/13 00:17:08;;;;;;;8.45;6.50;;;;;;;23.17;57.87;100500.94;5109575;28;20047;-22
2021/08/13 00:19:33;;;;;;;9.43;6.82;;;;;;;23.46;56.58;100498.09;5109577;28;20023;-22
2021/08/13 00:21:59;;;;;;;10.32;6.53;;;;;;;23.49;56.41;100492.06;5109678;28;20487;-22
2021/08/13 00:24:24;;;;;;;9.38;6.63;;;;;;;23.52;56.53;100507.81;5109155;28;20027;-22
2021/08/13 00:26:50;;;;;;;9.25;6.70;;;;;;;23.66;56.11;100497.00;5109486;28;20034;-22
2021/08/13 00:29:15;;;;;;;9.00;6.63;;;;;;;23.73;55.77;100504.78;5109883;28;20061;-23
2021/08/13 00:31:41;;;;;;;11.00;6.75;;;;;;;23.83;55.28;100499.22;5091672;28;20047;-23
2021/08/13 00:34:06;;;;;;;12.20;6.88;;;;;;;24.19;54.43;100514.94;5109137;28;20058;-22
2021/08/13 00:36:31;;;;;;;10.48;6.75;;;;;;;24.32;53.72;100508.72;5109784;28;20034;-23
2021/08/13 00:38:58;;;;;;;10.18;6.85;;;;;;;24.38;53.34;100504.78;5109229;28;20027;-23
2021/08/13 00:41:23;;;;;;;12.98;7.28;;;;;;;24.51;53.21;100511.41;5109179;28;20095;-22
2021/08/13 00:43:49;;;;;;;13.48;7.20;;;;;;;24.18;54.38;100505.16;5109033;28;20027;-23
2021/08/13 00:46:15;;;;;;;10.98;7.60;;;;;;;24.08;54.40;100500.69;5108912;28;20030;-22
2021/08/13 00:48:40;;;;;;;10.88;6.60;;;;;;;23.51;56.41;100511.63;5109048;28;20035;-22
2021/08/13 00:51:06;;;;;;;10.10;7.13;;;;;;;23.51;56.66;100506.19;5108995;28;20092;-22
2021/08/13 00:53:31;;;;;;;8.77;6.85;;;;;;;23.38;56.81;100512.38;5109168;28;20035;-23
2021/08/13 00:55:56;;;;;;;11.48;7.05;;;;;;;22.80;58.65;100503.28;5109019;28;20043;-22
2021/08/13 00:58:22;;;;;;;9.18;6.95;;;;;;;22.81;59.14;100504.91;5108185;28;20131;-22
2021/08/13 01:00:48;;;;;;;8.88;6.97;;;;;;;22.77;58.76;100511.22;5090401;28;20042;-22
2021/08/13 01:03:13;;;;;;;20.15;8.25;;;;;;;22.53;59.69;100508.47;5090565;28;20038;-23
2021/08/13 01:05:39;;;;;;;9.05;7.40;;;;;;;22.89;57.95;100510.81;5090699;28;20039;-22
2021/08/13 01:08:05;;;;;;;13.05;7.57;;;;;;;23.17;56.96;100511.81;5108425;28;20031;-22
2021/08/13 01:10:31;;;;;;;11.02;8.23;;;;;;;23.08;57.24;100517.13;5108972;28;20057;-22
2021/08/13 01:13:16;;;;;;;10.23;7.45;;;;;;;22.83;57.83;100512.78;5090232;28;20110;-23
2021/08/13 01:15:52;;;;;;;9.27;7.55;;;;;;;23.22;56.56;100509.84;5090548;28;20084;-29
2021/08/13 01:18:22;;;;;;;10.05;8.48;;;;;;;23.00;56.92;100501.41;5090487;28;20425;-22
2021/08/13 01:21:25;;;;;;;10.82;7.90;;;;;;;23.17;56.29;100512.66;5073937;28;20034;-22
2021/08/13 01:23:58;;;;;;;11.65;8.75;;;;;;;23.03;56.91;100501.69;5108504;28;20027;-23
2021/08/13 01:26:25;;;;;;;11.10;8.38;;;;;;;23.21;56.25;100489.19;5108021;28;20024;-23
2021/08/13 01:29:25;;;;;;;10.55;8.55;;;;;;;23.25;56.04;100514.72;5090156;28;20036;-22
2021/08/13 01:32:00;;;;;;;9.80;7.70;;;;;;;23.48;55.46;100504.06;5108238;28;20031;-22
2021/08/13 01:34:25;;;;;;;11.40;8.25;;;;;;;23.73;54.41;100519.19;5089830;28;20031;-22
2021/08/13 01:36:52;;;;;;;11.25;8.48;;;;;;;23.52;55.63;100524.16;5108526;28;20517;-23
2021/08/13 01:39:18;;;;;;;12.85;9.00;;;;;;;23.73;54.65;100521.13;5073491;28;20034;-23
2021/08/13 01:41:43;;;;;;;11.77;9.07;;;;;;;23.81;54.41;100515.84;5108112;28;20031;-23
2021/08/13 01:44:09;;;;;;;11.35;8.73;;;;;;;23.85;53.94;100507.88;5090042;28;20035;-22
2021/08/13 01:46:35;;;;;;;12.65;9.77;;;;;;;23.70;54.45;100510.81;5072823;28;20061;-23
2021/08/13 01:49:00;;;;;;;12.50;9.55;;;;;;;23.37;55.18;100516.19;5089890;28;20154;-23
2021/08/13 01:51:26;;;;;;;13.27;9.45;;;;;;;22.88;56.80;100512.69;5089792;28;20039;-23
2021/08/13 01:53:52;;;;;;;12.73;8.75;;;;;;;22.89;57.05;100517.06;5088935;28;20039;-23
2021/08/13 01:56:17;;;;;;;12.30;9.45;;;;;;;23.03;56.91;100537.03;5072926;28;20031;-22
2021/08/13 01:58:43;;;;;;;12.07;9.65;;;;;;;23.00;57.17;100534.06;5089465;28;20105;-23
2021/08/13 02:01:08;;;;;;;15.85;9.68;;;;;;;23.12;56.35;100526.31;5089357;28;20036;-23
2021/08/13 02:03:34;;;;;;;11.00;9.13;;;;;;;23.26;56.27;100548.19;5089726;28;20407;-23
2021/08/13 02:05:59;;;;;;;11.85;9.52;;;;;;;23.39;55.85;100557.53;5089349;28;20016;-22
2021/08/13 02:08:25;;;;;;;11.85;8.65;;;;;;;23.09;57.06;100559.56;5089239;28;20413;-22
2021/08/13 02:10:51;;;;;;;10.75;8.90;;;;;;;22.28;59.78;100551.13;5089539;28;20387;-22
2021/08/13 02:13:17;;;;;;;13.48;9.05;;;;;;;22.05;60.97;100552.63;5089594;28;20384;-22
2021/08/13 02:15:45;;;;;;;10.70;8.68;;;;;;;22.16;60.60;100554.16;5072553;28;20016;-22
2021/08/13 02:18:22;;;;;;;12.32;8.98;;;;;;;22.15;60.29;100541.69;5089474;28;20035;-23
2021/08/13 02:20:48;;;;;;;10.23;8.55;;;;;;;22.08;60.74;100557.47;5090190;28;20019;-23
2021/08/13 02:23:15;;;;;;;11.10;8.85;;;;;;;22.24;60.57;100566.34;5089374;28;20728;-22
2021/08/13 02:25:40;;;;;;;12.18;8.60;;;;;;;22.41;60.04;100572.19;5107623;28;20035;-23
2021/08/13 02:28:06;;;;;;;10.48;8.02;;;;;;;22.46;59.93;100574.84;5107287;28;20476;-22
2021/08/13 02:30:31;;;;;;;13.85;8.32;;;;;;;22.41;59.67;100574.09;5107221;28;20040;-23
2021/08/13 02:32:57;;;;;;;11.57;8.93;;;;;;;22.17;60.47;100572.09;5107408;28;20039;-22
2021/08/13 02:35:23;;;;;;;14.27;9.70;;;;;;;22.43;60.03;100578.16;5107534;28;20495;-23
2021/08/13 02:38:00;;;;;;;13.30;9.70;;;;;;;22.54;59.33;100578.88;5107214;28;20065;-23
2021/08/13 02:40:28;;;;;;;11.07;8.63;;;;;;;22.41;59.31;100572.19;5073584;28;20100;-23
2021/08/13 02:43:04;;;;;;;11.52;9.77;;;;;;;22.58;59.11;100592.69;5107198;28;20411;-22
2021/08/13 02:45:29;;;;;;;11.60;9.07;;;;;;;22.65;58.98;100587.72;5089703;28;20074;-22
2021/08/13 02:47:57;;;;;;;10.77;9.43;;;;;;;22.64;59.22;100594.28;5107380;28;20024;-22
2021/08/13 02:50:23;;;;;;;10.65;9.15;;;;;;;22.62;59.25;100591.84;5107227;28;20513;-23
2021/08/13 02:52:51;;;;;;;13.07;9.32;;;;;;;22.62;58.72;100578.25;5089116;28;20036;-23
2021/08/13 02:55:19;;;;;;;13.32;10.00;;;;;;;22.75;58.61;100589.53;5107705;28;20395;-22
2021/08/13 02:57:48;;;;;;;13.65;10.70;;;;;;;22.90;58.27;100594.00;5071935;28;20071;-23
2021/08/13 03:00:14;;;;;;;11.95;9.50;;;;;;;22.79;58.32;100580.50;5072121;28;20028;-23
2021/08/13 03:02:40;;;;;;;14.85;9.85;;;;;;;22.63;58.74;100579.03;5072126;28;20027;-23
2021/08/13 03:05:06;;;;;;;18.50;10.38;;;;;;;22.77;58.73;100590.06;5075349;28;20032;-23
2021/08/13 03:07:32;;;;;;;14.35;9.95;;;;;;;22.36;59.62;100583.09;5075783;28;20039;-23
2021/08/13 03:09:57;;;;;;;16.02;10.63;;;;;;;22.02;61.11;100589.28;5092676;28;20092;-22
2021/08/13 03:12:23;;;;;;;15.80;10.65;;;;;;;22.17;60.67;100593.81;5092609;28;20035;-23
2021/08/13 03:14:49;;;;;;;11.40;9.48;;;;;;;21.52;62.47;100604.00;5076111;28;20027;-23
2021/08/13 03:17:14;;;;;;;20.33;10.98;;;;;;;21.67;62.11;100596.56;5111096;28;20139;-22
2021/08/13 03:19:40;;;;;;;18.00;10.50;;;;;;;21.13;63.54;100613.63;5092624;28;20024;-23
2021/08/13 03:22:05;;;;;;;14.35;9.57;;;;;;;21.23;62.88;100608.16;5092338;28;20455;-23
2021/08/13 03:24:32;;;;;;;16.77;10.13;;;;;;;21.58;61.95;100608.31;5092359;28;20039;-22
2021/08/13 03:26:57;;;;;;;19.52;11.90;;;;;;;22.11;59.92;100600.41;5092403;28;20111;-23
2021/08/13 03:29:23;;;;;;;22.38;11.18;;;;;;;21.38;61.96;100614.63;5075717;28;20096;-23
2021/08/13 03:31:48;;;;;;;19.02;10.43;;;;;;;20.71;64.30;100595.81;5075280;28;20479;-22
2021/08/13 03:34:15;;;;;;;12.70;10.00;;;;;;;20.23;65.30;100595.28;5110364;28;20033;-22
2021/08/13 03:36:41;;;;;;;13.48;10.00;;;;;;;19.82;66.50;100612.28;5090844;28;20027;-22
2021/08/13 03:39:08;;;;;;;14.82;10.68;;;;;;;19.83;67.12;100622.00;5110160;28;20027;-22
2021/08/13 03:41:33;;;;;;;13.82;10.88;;;;;;;19.44;68.14;100610.78;5110292;28;20080;-22
2021/08/13 03:43:59;;;;;;;15.15;11.15;;;;;;;19.54;68.71;100632.44;5110107;28;20032;-22
2021/08/13 03:46:24;;;;;;;15.70;11.18;;;;;;;19.84;67.71;100626.34;5109879;28;20043;-23
2021/08/13 03:48:50;;;;;;;15.10;11.30;;;;;;;19.67;68.23;100599.47;5110269;28;20027;-22
2021/08/13 03:51:15;;;;;;;15.40;12.02;;;;;;;20.16;66.79;100616.38;5110065;28;20094;-23
2021/08/13 03:53:41;;;;;;;14.05;11.35;;;;;;;20.40;65.94;100605.84;5110365;28;20806;-23
2021/08/13 03:56:06;;;;;;;17.45;12.02;;;;;;;20.27;65.92;100591.75;5109949;28;20036;-22
2021/08/13 03:58:32;;;;;;;15.55;11.93;;;;;;;20.11;67.37;100605.56;5110056;28;20093;-23
2021/08/13 04:00:57;;;;;;;58.38;14.93;;;;;;;20.15;66.98;100621.00;5109726;28;20066;-23
2021/08/13 04:03:23;;;;;;;19.08;11.95;;;;;;;20.27;66.68;100612.63;5109944;28;20039;-22
2021/08/13 04:05:48;;;;;;;17.17;11.27;;;;;;;20.20;67.01;100622.88;5109889;28;20053;-22
2021/08/13 04:08:14;;;;;;;15.45;11.30;;;;;;;20.17;67.48;100624.25;5110229;28;20036;-22
2021/08/13 04:10:39;;;;;;;15.00;11.27;;;;;;;20.64;65.62;100617.78;5109689;28;20039;-23
2021/08/13 04:13:05;;;;;;;14.65;11.05;;;;;;;20.39;66.99;100621.28;5091571;28;20407;-22
2021/08/13 04:15:30;;;;;;;17.17;12.32;;;;;;;20.38;67.13;100616.94;5109022;28;20475;-23
2021/08/13 04:17:56;;;;;;;13.55;11.70;;;;;;;20.57;65.76;100619.91;5109664;28;20027;-22
2021/08/13 04:20:21;;;;;;;12.65;11.00;;;;;;;20.60;66.02;100624.03;5091064;28;20084;-22
2021/08/13 04:22:47;;;;;;;13.50;11.90;;;;;;;20.29;67.18;100607.75;5109804;28;20535;-24
2021/08/13 04:25:12;;;;;;;13.68;11.88;;;;;;;20.11;67.60;100610.97;5109436;28;20092;-22
2021/08/13 04:27:38;;;;;;;16.38;12.95;;;;;;;20.30;67.52;100622.91;5109390;28;20050;-22
2021/08/13 04:30:04;;;;;;;15.27;12.55;;;;;;;20.52;67.04;100630.75;5091230;28;20415;-22
2021/08/13 04:32:29;;;;;;;17.23;13.32;;;;;;;20.57;67.07;100630.75;5091426;28;20038;-22
2021/08/13 04:34:54;;;;;;;17.02;13.98;;;;;;;20.84;66.30;100644.06;5091179;28;20112;-23
2021/08/13 04:37:20;;;;;;;18.55;13.32;;;;;;;20.91;66.44;100643.75;5109384;28;20026;-22
2021/08/13 04:39:45;;;;;;;14.98;12.77;;;;;;;21.09;65.80;100639.66;5109064;28;20035;-24
2021/08/13 04:42:11;;;;;;;15.27;13.57;;;;;;;20.97;66.50;100648.09;5109272;28;20028;-22
2021/08/13 04:44:37;;;;;;;16.15;13.00;;;;;;;20.62;67.22;100627.28;5109352;28;20028;-22
2021/08/13 04:47:04;;;;;;;29.65;14.18;;;;;;;21.17;65.56;100630.97;5109039;28;20028;-22
2021/08/13 04:49:30;;;;;;;16.52;13.48;;;;;;;21.24;65.45;100647.75;5108947;28;20111;-22
2021/08/13 04:51:55;;;;;;;14.35;12.77;;;;;;;21.62;64.37;100653.63;5108898;28;20028;-23
2021/08/13 04:54:20;;;;;;;15.88;12.95;;;;;;;21.49;64.91;100651.50;5108462;28;20096;-23
2021/08/13 04:56:46;;;;;;;15.38;12.75;;;;;;;21.65;64.81;100666.63;5108807;28;20031;-22
2021/08/13 04:59:11;;;;;;;15.52;12.55;;;;;;;21.96;63.46;100662.94;5108727;28;20415;-22
2021/08/13 05:01:37;;;;;;;16.60;11.88;;;;;;;21.82;63.93;100668.16;5109121;28;20476;-23
2021/08/13 05:04:04;;;;;;;16.42;12.48;;;;;;;22.04;63.16;100665.06;5108718;28;20035;-22
2021/08/13 05:06:29;;;;;;;14.80;12.70;;;;;;;21.82;64.33;100671.72;5108798;28;20050;-23
2021/08/13 05:08:54;;;;;;;16.25;13.10;;;;;;;22.12;63.15;100667.19;5109133;28;20479;-23
2021/08/13 05:11:20;;;;;;;15.43;13.73;;;;;;;22.90;59.91;100659.28;5108864;28;20028;-22
2021/08/13 05:13:45;;;;;;;18.77;14.00;;;;;;;23.02;60.29;100662.44;5108587;28;20031;-23
2021/08/13 05:16:11;;;;;;;16.38;12.73;;;;;;;22.67;61.85;100678.75;5108340;28;20402;-23
2021/08/13 05:18:36;;;;;;;14.95;12.38;;;;;;;22.62;61.50;100665.22;5108704;28;20028;-23
2021/08/13 05:21:02;;;;;;;15.02;13.02;;;;;;;22.91;61.47;100682.66;5108691;28;20028;-22
2021/08/13 05:23:27;;;;;;;16.58;13.27;;;;;;;22.96;61.02;100675.25;5108433;28;20031;-23
2021/08/13 05:25:53;;;;;;;16.00;13.13;;;;;;;23.46;59.63;100688.66;5108298;28;20483;-23
2021/08/13 05:28:18;;;;;;;18.00;12.50;;;;;;;23.41;59.88;100691.41;5107261;28;20092;-22
2021/08/13 05:30:44;;;;;;;15.15;13.57;;;;;;;23.45;59.81;100695.19;5108065;28;20027;-23
2021/08/13 05:33:09;;;;;;;17.25;13.80;;;;;;;23.74;59.25;100694.28;5108391;28;20063;-22
2021/08/13 05:35:38;;;;;;;15.48;13.30;;;;;;;23.85;58.27;100695.81;5108224;28;20031;-23
2021/08/13 05:38:06;;;;;;;18.38;13.38;;;;;;;24.03;58.75;100697.75;5107703;28;20063;-22
2021/08/13 05:40:32;;;;;;;16.92;13.80;;;;;;;24.39;56.01;100697.22;5108220;28;20067;-22
2021/08/13 05:42:59;;;;;;;20.63;13.73;;;;;;;24.75;54.92;100696.69;5107945;28;20035;-23
2021/08/13 05:45:25;;;;;;;17.95;13.48;;;;;;;24.22;56.11;100699.66;5107992;28;20843;-23
2021/08/13 05:47:50;;;;;;;17.05;12.93;;;;;;;24.48;55.69;100702.81;5107736;28;20032;-23
2021/08/13 05:50:16;;;;;;;17.88;12.80;;;;;;;24.93;54.68;100707.81;5107457;28;20031;-23
2021/08/13 05:52:42;;;;;;;24.15;20.13;;;;;;;25.17;54.10;100703.03;5107550;28;20039;-23
2021/08/13 05:55:08;;;;;;;18.98;15.60;;;;;;;24.16;55.67;100689.94;5107640;28;20054;-23
2021/08/13 05:57:34;;;;;;;20.70;16.20;;;;;;;24.45;56.06;100706.94;5107492;28;20069;-22
2021/08/13 05:59:59;;;;;;;20.50;13.80;;;;;;;24.52;55.26;100697.59;5107622;28;20040;-23
2021/08/13 06:02:25;;;;;;;15.20;11.68;;;;;;;24.67;54.92;100714.53;5100471;28;20038;-23
2021/08/13 06:04:50;;;;;;;13.63;10.88;;;;;;;24.88;53.72;100706.00;5096976;28;20399;-23
2021/08/13 06:07:16;;;;;;;10.88;8.85;;;;;;;24.53;53.93;100715.59;5096299;28;20026;-23
2021/08/13 06:09:41;;;;;;;11.40;9.35;;;;;;;24.98;53.08;100705.00;5097888;28;20059;-23
2021/08/13 06:12:07;;;;;;;12.75;10.02;;;;;;;25.39;52.04;100701.56;5095963;28;20027;-23
2021/08/13 06:14:32;;;;;;;13.20;10.25;;;;;;;25.41;52.75;100700.13;5096775;28;20024;-23
2021/08/13 06:17:00;;;;;;;12.70;9.95;;;;;;;25.54;51.40;100695.81;5100607;28;20464;-23
2021/08/13 06:19:25;;;;;;;10.98;9.88;;;;;;;25.43;52.14;100697.91;5107496;28;20028;-23
2021/08/13 06:21:51;;;;;;;12.07;9.73;;;;;;;25.28;51.92;100698.22;5107427;28;20112;-23
2021/08/13 06:24:16;;;;;;;13.18;9.30;;;;;;;25.15;52.47;100691.63;5107171;28;20035;-23
2021/08/13 06:26:42;;;;;;;12.40;9.95;;;;;;;25.51;52.11;100706.53;5107674;28;20047;-23
2021/08/13 06:29:07;;;;;;;15.63;10.63;;;;;;;25.60;52.05;100702.78;5107555;28;20027;-22
2021/08/13 06:31:33;;;;;;;15.05;9.88;;;;;;;26.05;50.84;100702.94;5107458;28;20080;-22
2021/08/13 06:33:58;;;;;;;11.65;9.95;;;;;;;25.56;52.00;100709.97;5107529;28;20483;-23
2021/08/13 06:36:24;;;;;;;11.75;10.00;;;;;;;25.65;53.06;100708.13;5107290;28;20027;-22
2021/08/13 06:38:49;;;;;;;13.68;10.05;;;;;;;26.17;51.77;100701.59;5108632;28;20024;-22
2021/08/13 06:41:15;;;;;;;11.25;9.43;;;;;;;26.38;51.96;100710.13;5111472;28;20468;-23
2021/08/13 06:43:40;;;;;;;14.90;10.32;;;;;;;26.15;52.45;100712.81;5111791;28;20036;-23
2021/08/13 06:46:05;;;;;;;11.63;9.55;;;;;;;26.26;51.24;100706.00;5111451;28;20384;-22
2021/08/13 06:48:31;;;;;;;11.82;9.68;;;;;;;26.14;52.81;100703.00;5111838;28;20032;-23
2021/08/13 06:50:56;;;;;;;11.02;9.45;;;;;;;26.03;53.22;100691.50;5111206;28;20027;-22
2021/08/13 06:53:22;;;;;;;12.02;10.02;;;;;;;26.37;51.36;100706.56;5111636;28;20118;-22
2021/08/13 06:55:47;;;;;;;13.52;9.35;;;;;;;26.23;52.53;100701.16;5111402;28;20114;-23
2021/08/13 06:58:13;;;;;;;14.80;9.73;;;;;;;26.44;52.49;100712.44;5110792;28;20047;-22
2021/08/13 07:00:38;;;;;;;14.23;10.68;;;;;;;26.73;51.48;100704.94;5110945;28;20159;-23
2021/08/13 07:03:04;;;;;;;13.15;9.73;;;;;;;26.57;52.39;100704.47;5111564;28;20396;-23
2021/08/13 07:05:29;;;;;;;14.57;10.02;;;;;;;27.09;52.17;100704.81;5110809;28;20038;-22
2021/08/13 07:07:55;;;;;;;11.68;9.30;;;;;;;26.88;51.64;100704.53;5111076;28;20023;-22
2021/08/13 07:10:20;;;;;;;11.52;9.35;;;;;;;26.46;51.88;100698.47;5111050;28;20188;-23
2021/08/13 07:12:46;;;;;;;11.30;9.63;;;;;;;26.26;52.75;100699.75;5110727;28;20035;-23
2021/08/13 07:15:12;;;;;;;11.70;9.88;;;;;;;26.26;52.78;100678.66;5111023;28;20023;-22
2021/08/13 07:17:37;;;;;;;12.85;9.95;;;;;;;26.71;53.08;100696.25;5110825;28;20028;-22
2021/08/13 07:20:04;;;;;;;18.73;9.88;;;;;;;26.74;51.97;100681.91;5110554;28;20169;-22
2021/08/13 07:22:32;;;;;;;14.05;10.20;;;;;;;26.65;52.16;100684.63;5110992;28;20031;-22
2021/08/13 07:24:57;;;;;;;187.38;23.00;;;;;;;26.75;53.61;100683.56;5110640;28;20415;-22
2021/08/13 07:27:23;;;;;;;12.23;9.18;;;;;;;27.34;50.16;100688.84;5110639;28;20024;-22
2021/08/13 07:29:48;;;;;;;19.48;9.75;;;;;;;27.49;50.91;100685.69;5110667;28;20117;-22
2021/08/13 07:32:14;;;;;;;24.80;10.38;;;;;;;27.60;49.20;100697.97;5110451;28;20437;-22
2021/08/13 07:34:39;;;;;;;10.07;8.52;;;;;;;27.43;49.06;100692.44;5110315;28;20036;-22
2021/08/13 07:37:05;;;;;;;11.18;7.85;;;;;;;27.16;48.03;100699.69;5110601;28;20117;-23
2021/08/13 07:39:30;;;;;;;9.48;8.38;;;;;;;27.15;48.19;100683.59;5110329;28;20031;-23
2021/08/13 07:41:57;;;;;;;10.45;8.18;;;;;;;27.70;46.81;100690.56;5110381;28;20059;-23
2021/08/13 07:44:23;;;;;;;12.13;8.60;;;;;;;27.78;46.60;100671.38;5110277;28;20046;-23
2021/08/13 07:46:48;;;;;;;11.57;8.73;;;;;;;27.75;47.18;100693.97;5110135;28;20020;-23
2021/08/13 07:49:13;;;;;;;9.60;8.60;;;;;;;28.20;45.35;100676.47;5110259;28;20156;-23
2021/08/13 07:51:40;;;;;;;11.45;8.73;;;;;;;28.51;46.17;100684.53;5109405;28;20031;-23
2021/08/13 07:54:06;;;;;;;10.23;9.00;;;;;;;28.18;45.82;100673.25;5110145;28;20142;-22
2021/08/13 07:56:31;;;;;;;9.60;8.18;;;;;;;28.00;43.98;100664.19;5109834;28;20277;-22
2021/08/13 07:58:57;;;;;;;10.85;8.52;;;;;;;28.22;46.65;100690.66;5109968;28;20056;-23
2021/08/13 08:01:22;;;;;;;10.98;8.55;;;;;;;28.41;43.65;100677.41;5109845;28;20028;-22
2021/08/13 08:03:48;;;;;;;11.20;8.68;;;;;;;28.48;44.80;100692.56;5091739;28;20517;-22
2021/08/13 08:06:13;;;;;;;9.70;7.97;;;;;;;28.62;44.39;100679.50;5109707;28;20028;-22
2021/08/13 08:08:38;;;;;;;11.57;8.38;;;;;;;28.54;43.89;100691.28;5109671;28;20031;-23
2021/08/13 08:11:04;;;;;;;9.60;7.82;;;;;;;28.19;44.00;100691.28;5109959;28;20077;-23
2021/08/13 08:13:29;;;;;;;12.63;8.40;;;;;;;28.52;43.56;100682.59;5109746;28;20032;-22
2021/08/13 08:15:55;;;;;;;10.38;8.45;;;;;;;28.85;43.06;100691.06;5109857;28;20027;-23
2021/08/13 08:18:23;;;;;;;10.43;8.63;;;;;;;28.78;44.60;100683.34;5109256;28;20096;-23
2021/08/13 08:20:48;;;;;;;9.60;7.75;;;;;;;28.75;43.37;100686.75;5109620;28;20031;-22
2021/08/13 08:23:14;;;;;;;16.67;14.75;;;;;;;28.87;43.69;100677.00;5109609;28;20035;-22
2021/08/13 08:25:39;;;;;;;9.95;8.80;;;;;;;29.25;42.40;100677.88;5109597;28;20061;-22
2021/08/13 08:28:05;;;;;;;10.65;9.02;;;;;;;29.00;41.20;100671.31;5109419;28;20463;-23
2021/08/13 08:30:30;;;;;;;12.07;10.88;;;;;;;29.17;43.46;100675.97;5109497;28;20114;-23
2021/08/13 08:32:56;;;;;;;12.57;10.50;;;;;;;29.30;39.55;100676.91;5109393;28;20591;-22
2021/08/13 08:35:22;;;;;;;10.75;8.95;;;;;;;29.52;39.51;100675.00;5109350;28;20027;-22
2021/08/13 08:37:58;;;;;;;10.18;8.15;;;;;;;29.00;42.36;100668.56;5109162;28;20055;-22
2021/08/13 08:40:25;;;;;;;9.77;8.75;;;;;;;29.38;41.58;100675.22;5108881;28;20031;-22
2021/08/13 08:42:51;;;;;;;10.50;8.83;;;;;;;29.51;40.90;100679.69;5109520;28;20055;-22
2021/08/13 08:45:17;;;;;;;11.25;7.35;;;;;;;29.73;38.90;100673.13;5109392;28;20487;-22
2021/08/13 08:47:43;;;;;;;10.25;8.55;;;;;;;29.74;39.40;100682.16;5090785;28;20038;-22
2021/08/13 08:50:09;;;;;;;9.43;6.72;;;;;;;29.36;38.98;100682.97;5108991;28;20031;-22
2021/08/13 08:52:35;;;;;;;11.07;7.50;;;;;;;29.63;40.72;100666.03;5090678;28;20540;-22
2021/08/13 08:55:01;;;;;;;12.02;8.60;;;;;;;29.69;39.77;100680.38;5109362;28;20028;-22
2021/08/13 08:57:29;;;;;;;9.90;8.25;;;;;;;29.79;40.06;100673.72;5090787;28;20476;-22
2021/08/13 08:59:57;;;;;;;15.68;14.13;;;;;;;30.27;40.14;100675.13;5074776;28;20032;-22
2021/08/13 09:02:23;;;;;;;9.18;6.90;;;;;;;30.47;36.88;100669.97;5090157;28;20050;-22
2021/08/13 09:04:50;;;;;;;8.25;6.43;;;;;;;30.10;37.36;100683.50;5108659;28;20048;-22
2021/08/13 09:07:23;;;;;;;7.30;6.15;;;;;;;30.17;37.16;100675.53;5108840;28;20028;-22
2021/08/13 09:09:48;;;;;;;9.63;8.18;;;;;;;30.19;36.50;100679.53;5090469;28;20046;-22
2021/08/13 09:12:14;;;;;;;8.50;7.47;;;;;;;30.54;36.69;100675.69;5108377;28;20032;-22
2021/08/13 09:14:41;;;;;;;8.85;7.95;;;;;;;31.18;35.39;100677.91;5108536;28;20035;-22
2021/08/13 09:17:06;;;;;;;9.43;8.02;;;;;;;30.95;36.15;100668.47;5090519;28;20032;-22
2021/08/13 09:19:42;;;;;;;7.90;6.38;;;;;;;30.81;36.16;100666.84;5108531;28;20039;-22
2021/08/13 09:22:16;;;;;;;9.35;7.57;;;;;;;31.28;35.48;100660.09;5108195;28;20059;-22
2021/08/13 09:24:42;;;;;;;10.05;6.40;;;;;;;31.08;35.43;100672.88;5108692;28;20104;-22
2021/08/13 09:27:25;;;;;;;8.77;6.20;;;;;;;30.50;35.16;100653.56;5108093;28;20092;-22
2021/08/13 09:30:13;;;;;;;9.02;8.05;;;;;;;30.94;36.65;100677.91;5108243;28;20564;-22
2021/08/13 09:32:39;;;;;;;10.38;9.10;;;;;;;31.32;36.14;100668.50;5108246;28;20019;-22
2021/08/13 09:35:06;;;;;;;9.10;7.32;;;;;;;31.86;35.29;100667.44;5089839;28;20055;-22
2021/08/13 09:37:33;;;;;;;8.93;7.57;;;;;;;31.90;34.26;100658.09;5108047;28;20035;-23
2021/08/13 09:39:58;;;;;;;;;;;;;;;31.94;34.80;100658.22;5108727;28;20106;-23
2021/08/13 09:42:37;;;;;;;7.97;6.90;;;;;;;31.56;35.26;100646.44;5107876;28;20435;-22
2021/08/13 09:45:09;;;;;;;9.02;6.97;;;;;;;31.52;34.64;100655.78;5108386;28;20034;-22
2021/08/13 09:47:41;;;;;;;10.20;7.38;;;;;;;31.46;35.90;100649.69;5107967;28;20027;-22
2021/08/13 09:50:07;;;;;;;10.13;7.53;;;;;;;31.39;36.52;100649.44;5107489;28;20035;-22
2021/08/13 09:52:33;;;;;;;8.68;7.75;;;;;;;31.83;34.76;100657.88;5107873;28;20023;-22
2021/08/13 09:55:25;;;;;;;10.48;6.95;;;;;;;31.68;34.35;100651.16;5107894;28;20031;-22
2021/08/13 09:57:52;;;;;;;9.15;6.93;;;;;;;31.69;35.71;100646.44;5085574;28;20051;-22
2021/08/13 10:00:17;;;;;;;9.02;7.03;;;;;;;31.72;36.18;100652.06;5107856;28;20035;-22
2021/08/13 10:02:44;;;;;;;13.20;8.27;;;;;;;32.18;34.82;100638.03;5107522;28;20096;-22
2021/08/13 10:05:17;;;;;;;9.10;7.27;;;;;;;32.25;33.62;100640.19;5107687;28;20037;-22
2021/08/13 10:07:56;;;;;;;8.45;7.18;;;;;;;31.93;34.90;100646.34;5107673;28;20128;-22
2021/08/13 10:10:25;;;;;;;10.30;6.88;;;;;;;31.86;35.26;100643.41;5107467;28;20035;-22
2021/08/13 10:12:51;;;;;;;9.85;6.63;;;;;;;31.96;33.38;100651.19;5107241;28;20039;-22
2021/08/13 10:15:28;;;;;;;10.48;7.32;;;;;;;32.00;32.33;100652.13;5089155;28;20031;-22
2021/08/13 10:17:55;;;;;;;7.70;6.00;;;;;;;31.72;33.09;100631.97;5107413;28;20062;-22
2021/08/13 10:20:20;;;;;;;9.93;6.53;;;;;;;31.72;33.66;100637.47;5089246;28;20392;-22
2021/08/13 10:22:46;;;;;;;8.25;6.88;;;;;;;32.28;33.48;100633.97;5108302;28;20092;-23
2021/08/13 10:25:11;;;;;;;8.75;6.45;;;;;;;32.64;31.54;100641.25;5089599;28;20027;-23
2021/08/13 10:27:37;;;;;;;8.52;5.93;;;;;;;32.57;31.24;100649.34;5089388;28;20027;-22
2021/08/13 10:30:02;;;;;;;8.60;5.95;;;;;;;32.99;31.20;100641.34;5089425;28;20396;-23
2021/08/13 10:32:28;;;;;;;10.25;6.10;;;;;;;32.65;31.23;100642.06;5107515;28;20019;-22
2021/08/13 10:34:54;;;;;;;8.90;5.82;;;;;;;32.39;32.18;100641.38;5107391;28;20047;-22
2021/08/13 10:37:20;;;;;;;7.80;5.70;;;;;;;32.59;31.64;100644.28;5089319;28;20028;-22
2021/08/13 10:39:45;;;;;;;10.30;5.78;;;;;;;32.55;30.82;100643.38;5072775;28;20448;-22
2021/08/13 10:42:24;;;;;;;8.30;5.97;;;;;;;32.99;31.36;100629.50;5071970;28;20096;-22
2021/08/13 10:44:59;;;;;;;8.35;5.75;;;;;;;32.92;31.45;100641.19;5073269;28;20108;-22
2021/08/13 10:47:27;;;;;;;8.10;6.20;;;;;;;33.05;30.00;100635.56;5073165;28;20055;-22
2021/08/13 10:49:52;;;;;;;8.95;6.80;;;;;;;33.18;30.69;100632.38;5072437;28;20038;-22
2021/08/13 10:52:18;;;;;;;9.50;6.57;;;;;;;33.65;29.54;100630.66;5089027;28;20548;-22
2021/08/13 10:54:45;;;;;;;8.25;7.05;;;;;;;33.61;28.67;100622.31;5072181;28;20129;-22
2021/08/13 10:57:11;;;;;;;8.77;7.05;;;;;;;33.94;28.75;100629.31;5107022;28;20034;-22
2021/08/13 10:59:39;;;;;;;9.17;7.07;;;;;;;34.07;28.96;100629.97;5107365;28;20031;-22
2021/08/13 11:02:14;;;;;;;10.40;7.45;;;;;;;34.23;29.02;100629.91;5106845;28;20498;-22
2021/08/13 11:04:44;;;;;;;8.50;7.60;;;;;;;34.08;28.64;100631.53;5106982;28;20039;-22
2021/08/13 11:07:10;;;;;;;10.02;7.72;;;;;;;34.17;28.51;100621.09;5107182;28;20031;-23
2021/08/13 11:09:36;;;;;;;8.32;6.72;;;;;;;34.11;28.07;100618.97;5107417;28;20032;-22
2021/08/13 11:12:15;;;;;;;8.77;6.68;;;;;;;33.64;29.27;100603.41;5106984;28;20576;-22
2021/08/13 11:14:45;;;;;;;7.15;5.97;;;;;;;33.62;28.40;100620.34;5107049;28;20058;-22